WetterOnline ( https://www.wetteronline.de )

Wetter aktuell Vnà

Aktuelles Wetter: Reschenpass (1461m)

6-stündlich | Neueste Meldungen
Ortszeit Temperatur Wetter
Fr, 25.09. 8:00 10.0° C bewölkt
Fr, 25.09. 2:00 11.0° C leichter Regen
Do, 24.09. 20:00 13.4° C bedeckt
Do, 24.09. 14:00 13.0° C bedeckt
Do, 24.09. 8:00 12.4° C bedeckt
Do, 24.09. 2:00 14.0° C bedeckt
Mi, 23.09. 20:00 13.8° C leichter Regen
Mi, 23.09. 14:00 15.2° C leichter Regen
Ortszeit Temperatur Wetter
Fr, 25.09. 12:00 10.2° C wolkig
Fr, 25.09. 11:55 10° C bewölkt
Fr, 25.09. 11:00 10.0° C wolkig
Fr, 25.09. 10:55 10° C bewölkt
Fr, 25.09. 10:00 10.2° C wolkig
Fr, 25.09. 9:55 10° C bewölkt
Fr, 25.09. 9:00 10.0° C wolkig
Fr, 25.09. 8:55 10° C bewölkt
Fr, 25.09. 8:00 10.0° C bewölkt
Ortszeit Relative Feuchte Sichtweite
Fr, 25.09. 8:00 94% 15 km
Fr, 25.09. 2:00 95% 5.0 km
Do, 24.09. 20:00 100% 6 km
Do, 24.09. 14:00 85% 12 km
Do, 24.09. 8:00 95% 8 km
Do, 24.09. 2:00 98% 8 km
Mi, 23.09. 20:00 96% 10 km
Mi, 23.09. 14:00 67% 10 km
Ortszeit Relative Feuchte Sichtweite
Fr, 25.09. 12:00 72% 10 km
Fr, 25.09. 11:55 71% >10 km
Fr, 25.09. 11:00 85% 10 km
Fr, 25.09. 10:55 87% >10 km
Fr, 25.09. 10:00 88% 10 km
Fr, 25.09. 9:55 87% >10 km
Fr, 25.09. 9:00 88% 15 km
Fr, 25.09. 8:55 87% >10 km
Fr, 25.09. 8:00 94% 15 km
Ortszeit Niederschlagsmenge Niederschlagsart
Fr, 25.09. 8:00 10 l/m2 in 12 Std. Regen
Fr, 25.09. 2:00 8 l/m2 in 6 Std. Regen
Do, 24.09. 20:00 1 l/m2 in 12 Std. Regen
Do, 24.09. 14:00 0.0 l/m2 in 6 Std. -
Do, 24.09. 8:00 0.6 l/m2 in 12 Std. -
Do, 24.09. 2:00 0.6 l/m2 in 6 Std. Regen
Mi, 23.09. 20:00 0.9 l/m2 in 12 Std. Regen
Mi, 23.09. 14:00 0.1 l/m2 in 6 Std. Regen
Ortszeit Niederschlagsmenge Niederschlagsart
Fr, 25.09. 12:00 keine Meldung -
Fr, 25.09. 11:55 keine Meldung -
Fr, 25.09. 11:00 keine Meldung -
Fr, 25.09. 10:55 keine Meldung -
Fr, 25.09. 10:00 keine Meldung -
Fr, 25.09. 9:55 keine Meldung -
Fr, 25.09. 9:00 keine Meldung -
Fr, 25.09. 8:55 keine Meldung -
Fr, 25.09. 8:00 keine Meldung -
Ortszeit Stärke Spitze Richtung
km/h Bft. km/h Grad Sektor
Fr, 25.09. 8:00 4 1 - 360° N
Fr, 25.09. 2:00 4 1 - 110° O
Do, 24.09. 20:00 13 3 - 200° S
Do, 24.09. 14:00 13 3 - 150° SO
Do, 24.09. 8:00 0 0 - - -
Do, 24.09. 2:00 4 1 - 200° S
Mi, 23.09. 20:00 6 1 - 170° S
Mi, 23.09. 14:00 6 1 - 10° N
Ortszeit Stärke Spitze Richtung
km/h Bft. km/h Grad Sektor
Fr, 25.09. 12:00 19 3 - 20° N
Fr, 25.09. 11:55 19 3 63 20° N
Fr, 25.09. 11:00 17 3 - 20° N
Fr, 25.09. 10:55 17 3 - 20° N
Fr, 25.09. 10:00 9 2 - 30° NO
Fr, 25.09. 9:55 9 2 - 30° NO
Fr, 25.09. 9:00 7 2 - 50° NO
Fr, 25.09. 8:55 7 2 - 50° NO
Fr, 25.09. 8:00 4 1 - 360° N
Ortszeit Untergrenze Bedeckung Gattung
total tief tief mittel hoch
Fr, 25.09. 8:00 1050 m 7/8 7/8 Sc - -
Fr, 25.09. 2:00 210 m 8/8 8/8 St - -
Do, 24.09. 20:00 210 m 8/8 8/8 Sc - -
Do, 24.09. 14:00 300 m 8/8 8/8 St - -
Do, 24.09. 8:00 270 m 8/8 8/8 St - -
Do, 24.09. 2:00 360 m 8/8 8/8 St - -
Mi, 23.09. 20:00 300 m 8/8 8/8 St - -
Mi, 23.09. 14:00 600 m 8/8 8/8 Cu - -
Ortszeit Bedeckungsgrad in Achtel und Wolkenuntergrenze
Fr, 25.09. 12:00 6(900m)
Fr, 25.09. 11:55 5-7(900m)
Fr, 25.09. 11:00 6(600m)
Fr, 25.09. 10:55 5-7(600m)
Fr, 25.09. 10:00 6(900m)
Fr, 25.09. 9:55 5-7(900m)
Fr, 25.09. 9:00 6(1200m)
Fr, 25.09. 8:55 5-7(1200m)
Fr, 25.09. 8:00 7(1050m)
Ortszeit Stationsdruck (hPa) Tendenz (hPa in 3 Std.)
Fr, 25.09. 8:00 838 - 2,3
Fr, 25.09. 2:00 843 - 2,1
Do, 24.09. 20:00 846 - 1,6
Do, 24.09. 14:00 848 0,0
Do, 24.09. 8:00 848 0,0
Do, 24.09. 2:00 848 + 0,2
Mi, 23.09. 20:00 847 0,0
Mi, 23.09. 14:00 847 - 0,8
Ortszeit Stationsdruck (hPa) Tendenz (hPa in 3 Std.)
Fr, 25.09. 12:00 834 - 2,8
Fr, 25.09. 11:55 - keine Meldung
Fr, 25.09. 11:00 834 - 3,8
Fr, 25.09. 10:55 - keine Meldung
Fr, 25.09. 10:00 835 - 2,8
Fr, 25.09. 9:55 - keine Meldung
Fr, 25.09. 9:00 836 - 2,4
Fr, 25.09. 8:55 - keine Meldung
Fr, 25.09. 8:00 838 - 2,3
Ortszeit Schneehöhe (cm)
Fr, 25.09. 8:00 0
Fr, 25.09. 2:00 -
Do, 24.09. 20:00 -
Do, 24.09. 14:00 -
Do, 24.09. 8:00 0
Do, 24.09. 2:00 -
Mi, 23.09. 20:00 -
Mi, 23.09. 14:00 -
Ortszeit Schneehöhe (cm)
Fr, 25.09. 12:00 -
Fr, 25.09. 11:55 -
Fr, 25.09. 11:00 -
Fr, 25.09. 10:55 -
Fr, 25.09. 10:00 -
Fr, 25.09. 9:55 -
Fr, 25.09. 9:00 -
Fr, 25.09. 8:55 -
Fr, 25.09. 8:00 0
Link zu dieser Seite / Seite empfehlen

Das Wetter in ...